Time;durP1;ratioP1;P1;durP2;ratioP2;P2;SDS_P1;SDS_P2;PMS_P1;PMS_P2;Temp;Humidity;BMP_temperature;BMP_pressure;BME280_temperature;BME280_humidity;BME280_pressure;Samples;Min_cycle;Max_cycle;Signal;HPM_P1;HPM_P2
2022/10/03 00:01:42;;;;;;;13.65;11.30;;;;;;;9.10;94.76;97671.38;10331142;28;20069;-58
2022/10/03 00:06:53;;;;;;;19.42;11.93;;;;;;;9.08;95.10;97657.56;10330715;28;20084;-58
2022/10/03 00:12:17;;;;;;;17.30;12.55;;;;;;;8.90;95.62;97667.00;10330302;28;20104;-58
2022/10/03 00:17:19;;;;;;;20.95;15.90;;;;;;;8.77;95.87;97662.63;10330281;28;20060;-58
2022/10/03 00:22:27;;;;;;;20.42;16.27;;;;;;;8.52;96.16;97662.47;10329700;28;20061;-58
2022/10/03 00:28:01;;;;;;;17.73;14.50;;;;;;;8.27;95.94;97651.16;10332200;28;20060;-58
2022/10/03 00:33:29;;;;;;;18.30;15.85;;;;;;;8.12;96.72;97648.44;10339133;28;20085;-58
2022/10/03 00:38:53;;;;;;;26.20;20.40;;;;;;;8.06;96.66;97646.69;10341113;28;20068;-58
2022/10/03 00:44:21;;;;;;;21.10;18.02;;;;;;;8.11;96.61;97649.31;10341494;28;20437;-58
2022/10/03 00:49:32;;;;;;;23.83;18.75;;;;;;;8.12;96.79;97645.84;10340210;28;20076;-58
2022/10/03 00:54:54;;;;;;;25.05;19.80;;;;;;;8.13;96.58;97638.97;10340805;28;20064;-58
2022/10/03 01:00:23;;;;;;;21.38;17.52;;;;;;;8.14;96.96;97628.66;10340204;28;20073;-58
2022/10/03 01:05:28;;;;;;;21.23;17.67;;;;;;;8.20;96.80;97627.81;10339806;28;20061;-58
2022/10/03 01:10:39;;;;;;;18.98;14.23;;;;;;;8.24;96.70;97619.22;10339564;28;20080;-59
2022/10/03 01:16:06;;;;;;;19.92;13.77;;;;;;;8.27;96.38;97621.81;10340200;28;20073;-58
2022/10/03 01:21:13;;;;;;;17.02;13.02;;;;;;;8.31;96.71;97620.97;10339093;28;20485;-58
2022/10/03 01:26:39;;;;;;;16.42;12.25;;;;;;;8.32;96.31;97608.91;10336699;28;20067;-58
2022/10/03 01:32:01;;;;;;;16.90;13.55;;;;;;;8.39;96.70;97606.41;10335552;28;20068;-58
2022/10/03 01:37:39;;;;;;;17.88;13.07;;;;;;;8.45;97.18;97613.31;10335067;28;20076;-58
2022/10/03 01:43:20;;;;;;;18.52;13.07;;;;;;;8.55;97.27;97599.56;10334416;28;20065;-58
2022/10/03 01:48:46;;;;;;;17.02;12.05;;;;;;;8.66;97.15;97603.06;10333577;28;20083;-58
2022/10/03 01:54:03;;;;;;;15.80;11.32;;;;;;;8.78;97.07;97606.56;10335168;28;20073;-58
2022/10/03 01:59:02;;;;;;;15.30;11.27;;;;;;;8.84;96.77;97599.69;10334415;28;20064;-58
2022/10/03 02:04:27;;;;;;;13.40;11.15;;;;;;;8.93;96.91;97591.94;10334106;28;20021;-58
2022/10/03 02:09:49;;;;;;;20.58;13.02;;;;;;;9.05;96.95;97590.25;10334201;28;20497;-58
2022/10/03 02:15:16;;;;;;;15.85;10.25;;;;;;;9.15;96.32;97592.84;10334186;28;20065;-58
2022/10/03 02:20:22;;;;;;;18.30;15.45;;;;;;;9.02;96.83;97580.75;10333157;28;20064;-58
2022/10/03 02:25:55;;;;;;;21.30;16.00;;;;;;;9.08;96.48;97579.91;10333356;28;20072;-58
2022/10/03 02:31:19;;;;;;;17.05;14.48;;;;;;;9.02;95.99;97574.69;10333209;28;20060;-58
2022/10/03 02:36:39;;;;;;;16.08;13.18;;;;;;;8.98;95.99;97576.44;10333460;28;20096;-58
2022/10/03 02:42:17;;;;;;;14.43;12.35;;;;;;;8.97;95.79;97573.84;10332516;28;20068;-58
2022/10/03 02:47:53;;;;;;;15.75;12.55;;;;;;;8.92;95.36;97582.44;10331539;28;20484;-58
2022/10/03 02:53:13;;;;;;;15.05;11.35;;;;;;;8.90;95.24;97563.50;10332534;28;20069;-58
2022/10/03 02:58:15;;;;;;;;;;;;;;;9.03;95.18;97564.38;10332213;28;20073;-58
2022/10/03 03:03:56;;;;;;;15.77;11.43;;;;;;;9.17;95.31;97554.03;10332027;28;19963;-58
2022/10/03 03:09:01;;;;;;;16.90;10.23;;;;;;;9.17;95.25;97561.81;10332394;28;20501;-58
2022/10/03 03:14:42;;;;;;;14.80;11.43;;;;;;;9.11;95.07;97556.59;10332270;28;20085;-58
2022/10/03 03:20:00;;;;;;;14.90;10.93;;;;;;;8.70;95.53;97563.41;10331064;28;20072;-58
2022/10/03 03:25:36;;;;;;;14.18;11.30;;;;;;;8.57;96.00;97553.00;10332028;28;20387;-58
2022/10/03 03:30:47;;;;;;;16.77;12.10;;;;;;;8.65;95.80;97562.53;10332173;28;20077;-58
2022/10/03 03:36:16;;;;;;;15.52;12.73;;;;;;;8.74;95.50;97546.19;10333729;28;20073;-58
2022/10/03 03:41:17;;;;;;;16.75;11.70;;;;;;;8.84;95.32;97555.69;10333757;28;20073;-58
2022/10/03 03:46:39;;;;;;;14.55;12.57;;;;;;;8.87;95.29;97554.84;10334011;28;20501;-58
2022/10/03 03:51:51;;;;;;;15.20;12.20;;;;;;;8.91;95.27;97549.69;10333757;28;20084;-58
2022/10/03 03:57:02;;;;;;;16.92;12.65;;;;;;;8.97;95.21;97542.78;10333823;28;20076;-58
2022/10/03 04:02:19;;;;;;;16.67;12.52;;;;;;;9.07;95.04;97545.41;10333693;28;20069;-58
2022/10/03 04:07:49;;;;;;;17.70;12.82;;;;;;;9.13;95.06;97552.28;10340328;28;20492;-58
2022/10/03 04:13:06;;;;;;;14.68;12.35;;;;;;;9.24;95.27;97555.75;10341670;28;20033;-58
2022/10/03 04:18:56;;;;;;;15.35;12.75;;;;;;;9.35;95.16;97546.31;10342010;28;20484;-58
2022/10/03 04:24:19;;;;;;;16.73;12.67;;;;;;;9.43;94.95;97545.47;10340583;28;20057;-58
2022/10/03 04:29:30;;;;;;;15.02;12.20;;;;;;;9.53;95.02;97539.41;10338752;28;20072;-58
2022/10/03 04:34:51;;;;;;;17.05;11.98;;;;;;;9.66;94.72;97538.53;10373028;28;20091;-58
2022/10/03 04:39:56;;;;;;;18.48;12.15;;;;;;;9.73;94.83;97534.22;10376635;28;20077;-58
2022/10/03 04:45:06;;;;;;;15.65;11.95;;;;;;;9.71;95.73;97533.34;10333692;28;20053;-59
2022/10/03 04:50:11;;;;;;;21.30;12.48;;;;;;;9.68;95.98;97539.41;10358527;28;20056;-58
2022/10/03 04:55:40;;;;;;;18.40;13.45;;;;;;;9.67;95.30;97541.97;10377752;28;20064;-58
2022/10/03 05:00:45;;;;;;;16.65;12.63;;;;;;;9.73;95.22;97544.59;10364549;28;20083;-58
2022/10/03 05:06:22;;;;;;;15.77;12.05;;;;;;;9.84;94.78;97548.03;10377714;28;20059;-58
2022/10/03 05:11:53;;;;;;;37.03;16.45;;;;;;;10.06;94.29;97538.47;10352174;28;20049;-58
2022/10/03 05:17:19;;;;;;;32.35;15.48;;;;;;;10.17;94.21;97533.28;10355317;28;20087;-58
2022/10/03 05:22:44;;;;;;;27.65;15.35;;;;;;;10.28;94.20;97533.22;10336249;28;20065;-58
2022/10/03 05:27:52;;;;;;;22.17;12.18;;;;;;;10.36;93.34;97516.75;10339364;28;20055;-58
2022/10/03 05:33:16;;;;;;;27.35;12.85;;;;;;;10.53;92.70;97521.88;10343539;28;20084;-58
2022/10/03 05:38:25;;;;;;;23.15;12.82;;;;;;;10.66;92.14;97503.63;10367447;28;20064;-58
2022/10/03 05:43:35;;;;;;;20.20;14.03;;;;;;;10.71;92.18;97466.44;10374411;28;20056;-58
2022/10/03 05:49:00;;;;;;;22.58;15.52;;;;;;;10.77;92.82;97486.28;10368194;28;20075;-58
2022/10/03 05:54:08;;;;;;;17.15;12.05;;;;;;;10.44;92.03;97506.34;10335028;28;20064;-58
2022/10/03 05:59:32;;;;;;;15.98;12.27;;;;;;;10.44;92.87;97513.28;10360935;28;20496;-58
2022/10/03 06:04:46;;;;;;;15.90;11.40;;;;;;;10.44;92.84;97519.31;10370160;28;20507;-59
2022/10/03 06:10:17;;;;;;;11.68;9.88;;;;;;;10.71;92.51;97531.31;10335701;28;20057;-58
2022/10/03 06:15:31;;;;;;;12.45;10.02;;;;;;;11.10;91.68;97538.91;10293346;28;20061;-59
2022/10/03 06:21:07;;;;;;;19.67;12.75;;;;;;;11.44;91.30;97552.50;10293569;28;20072;-58
2022/10/03 06:26:35;;;;;;;15.95;11.38;;;;;;;11.70;89.92;97541.91;10354974;28;20504;-58
2022/10/03 06:32:10;;;;;;;16.27;10.27;;;;;;;11.83;88.76;97573.84;10332474;28;20076;-59
2022/10/03 06:37:50;;;;;;;13.77;8.23;;;;;;;11.91;87.11;97594.59;10333915;28;20064;-59
2022/10/03 06:43:07;;;;;;;12.25;10.43;;;;;;;11.24;88.29;97607.19;10333480;28;20157;-58
2022/10/03 06:48:15;;;;;;;13.32;10.60;;;;;;;11.26;88.18;97608.06;10333554;28;20060;-58
2022/10/03 06:53:39;;;;;;;15.27;9.60;;;;;;;11.38;88.33;97646.94;10333321;28;20064;-58
2022/10/03 06:59:15;;;;;;;11.57;8.18;;;;;;;11.47;88.27;97622.63;10365225;28;20053;-58
2022/10/03 07:04:32;;;;;;;12.20;9.15;;;;;;;11.54;89.82;97624.31;10360145;28;20060;-58
2022/10/03 07:09:43;;;;;;;12.73;10.18;;;;;;;11.57;90.24;97647.72;10332797;28;20060;-58
2022/10/03 07:15:10;;;;;;;12.77;10.15;;;;;;;11.58;90.62;97669.38;10332335;28;20072;-58
2022/10/03 07:20:54;;;;;;;19.52;14.23;;;;;;;11.36;91.76;97699.78;10331382;28;20079;-58
2022/10/03 07:26:11;;;;;;;16.85;13.35;;;;;;;10.99;93.92;97687.84;10342209;28;20076;-58
2022/10/03 07:31:39;;;;;;;19.25;13.65;;;;;;;11.03;93.21;97686.97;10332861;28;20068;-58
2022/10/03 07:43:14;;;;;;;22.20;15.48;;;;;;;11.39;93.45;97685.06;10337749;28;20057;-58
2022/10/03 07:48:22;;;;;;;;;;;;;;;11.53;93.95;97702.31;10293820;28;20092;-58
2022/10/03 07:53:39;;;;;;;15.73;12.68;;;;;;;11.61;94.19;97703.13;10325835;28;19943;-58
2022/10/03 07:59:22;;;;;;;15.43;11.70;;;;;;;11.71;94.59;97670.97;10374203;28;20057;-58
2022/10/03 08:04:58;;;;;;;13.00;10.02;;;;;;;11.77;95.15;97670.94;10367216;28;20080;-59
2022/10/03 08:10:15;;;;;;;12.57;8.18;;;;;;;12.00;94.78;97668.19;10351715;28;20227;-58
2022/10/03 08:15:42;;;;;;;11.93;8.00;;;;;;;12.40;95.47;97674.81;10360365;28;20057;-58
2022/10/03 08:20:45;;;;;;;9.52;7.30;;;;;;;12.82;95.58;97664.81;10355307;28;20057;-58
2022/10/03 08:25:50;;;;;;;7.68;5.90;;;;;;;13.17;95.16;97660.94;10341017;28;20064;-58
2022/10/03 08:31:26;;;;;;;11.63;6.05;;;;;;;13.51;94.08;97656.97;10348881;28;20056;-58
2022/10/03 08:36:42;;;;;;;8.10;5.40;;;;;;;13.76;92.58;97667.06;10337235;28;20068;-58
2022/10/03 08:42:06;;;;;;;10.48;7.88;;;;;;;13.74;89.67;97681.88;10359933;28;20472;-58
2022/10/03 08:47:26;;;;;;;7.88;5.38;;;;;;;13.69;87.97;97679.34;10351479;28;20061;-58
2022/10/03 08:52:59;;;;;;;12.27;7.22;;;;;;;13.56;89.38;97675.19;10370179;28;20076;-58
2022/10/03 08:58:15;;;;;;;17.48;12.32;;;;;;;13.52;91.25;97687.38;10337503;28;20804;-59
2022/10/03 09:03:39;;;;;;;17.35;14.85;;;;;;;13.60;89.92;97689.03;10376306;28;20068;-58
2022/10/03 09:08:57;;;;;;;14.55;10.55;;;;;;;13.81;89.32;97690.47;10368932;28;20072;-59
2022/10/03 09:14:26;;;;;;;12.77;7.30;;;;;;;14.08;85.65;97684.84;10342712;28;20071;-59
2022/10/03 09:19:37;;;;;;;8.73;5.82;;;;;;;14.26;84.06;97678.44;10352564;28;20076;-59
2022/10/03 09:25:10;;;;;;;8.77;6.53;;;;;;;14.43;82.67;97677.28;10342142;28;20060;-58
2022/10/03 09:30:43;;;;;;;7.40;3.80;;;;;;;14.46;79.01;97666.81;10379612;28;20060;-58
2022/10/03 09:35:52;;;;;;;6.85;3.42;;;;;;;14.46;79.50;97661.59;10350040;28;20091;-59
2022/10/03 09:41:09;;;;;;;4.47;3.67;;;;;;;14.45;78.32;97660.69;10360481;28;20059;-59
2022/10/03 09:46:28;;;;;;;4.47;3.53;;;;;;;14.28;78.82;97666.22;10359874;28;20464;-59
2022/10/03 09:51:27;;;;;;;;;;;;;;;14.39;79.39;97653.84;10379236;28;20064;-59
2022/10/03 09:56:57;;;;;;;5.72;3.63;;;;;;;14.70;78.83;97648.09;10378789;28;20382;-59
2022/10/03 10:02:02;;;;;;;6.40;3.65;;;;;;;14.91;76.51;97636.34;10363410;28;20061;-59
2022/10/03 10:07:19;;;;;;;5.55;3.28;;;;;;;15.16;73.94;97628.03;10366791;28;20053;-59
2022/10/03 10:12:37;;;;;;;5.47;3.40;;;;;;;15.40;72.59;97630.09;10338557;28;20087;-59
2022/10/03 10:17:47;;;;;;;4.45;3.78;;;;;;;15.57;72.33;97629.69;10337313;28;20060;-59
2022/10/03 10:22:52;;;;;;;5.60;3.90;;;;;;;15.76;71.20;97635.34;10359526;28;20064;-59
2022/10/03 10:28:42;;;;;;;6.45;3.55;;;;;;;16.12;69.54;97629.31;10378215;28;20079;-59
2022/10/03 10:34:15;;;;;;;3.50;2.33;;;;;;;16.25;67.73;97615.00;10373313;28;20072;-59
2022/10/03 10:39:41;;;;;;;4.72;2.50;;;;;;;16.35;68.53;97611.25;10372252;28;20065;-59
2022/10/03 10:45:02;;;;;;;3.03;2.55;;;;;;;16.58;67.36;97620.22;10372069;28;20068;-59
2022/10/03 10:50:06;;;;;;;5.65;2.85;;;;;;;16.73;65.97;97612.81;10371999;28;20073;-59
2022/10/03 10:55:24;;;;;;;7.68;3.15;;;;;;;17.08;66.82;97605.75;10371515;28;20051;-59
2022/10/03 11:00:51;;;;;;;7.90;3.13;;;;;;;17.45;65.55;97601.13;10371510;28;20475;-59
2022/10/03 11:06:24;;;;;;;5.07;3.53;;;;;;;17.67;65.20;97604.81;10374366;28;20063;-59
2022/10/03 11:12:00;;;;;;;8.15;2.72;;;;;;;17.79;64.12;97595.72;10373059;28;20075;-59
2022/10/03 11:17:44;;;;;;;2.88;1.75;;;;;;;17.68;60.39;97590.78;10374032;28;20073;-59
2022/10/03 11:22:52;;;;;;;3.70;2.20;;;;;;;17.36;60.08;97581.31;10367801;28;20076;-59
2022/10/03 11:28:15;;;;;;;1.50;1.40;;;;;;;17.13;59.97;97574.13;10374231;28;20079;-59
2022/10/03 11:33:43;;;;;;;3.22;1.65;;;;;;;17.24;62.54;97576.41;10373770;28;20077;-59
2022/10/03 11:39:01;;;;;;;2.78;1.50;;;;;;;17.39;61.27;97569.88;10374815;28;20071;-59
2022/10/03 11:44:24;;;;;;;2.88;1.80;;;;;;;17.24;60.06;97572.06;10375112;28;20060;-59
2022/10/03 11:49:51;;;;;;;1.90;1.58;;;;;;;17.50;60.79;97559.91;10374989;28;20075;-59
2022/10/03 11:55:02;;;;;;;1.52;0.90;;;;;;;17.35;56.16;97554.22;10374582;28;20079;-59
2022/10/03 12:00:18;;;;;;;1.35;0.90;;;;;;;17.34;55.75;97549.88;10373550;28;20067;-59
2022/10/03 12:05:20;;;;;;;3.13;1.20;;;;;;;17.46;55.54;97539.91;10374391;28;20056;-59
2022/10/03 12:10:34;;;;;;;2.75;2.03;;;;;;;17.80;57.98;97530.94;10374223;28;20444;-59
2022/10/03 12:15:53;;;;;;;1.45;1.30;;;;;;;18.30;55.29;97528.34;10373995;28;20068;-59
2022/10/03 12:21:10;;;;;;;2.53;1.63;;;;;;;18.64;53.92;97516.59;10373710;28;20087;-59
2022/10/03 12:26:17;;;;;;;1.30;1.13;;;;;;;18.44;51.96;97523.47;10375716;28;20065;-59
2022/10/03 12:31:50;;;;;;;2.67;1.10;;;;;;;18.09;47.42;97525.56;10376256;28;20080;-59
2022/10/03 12:37:16;;;;;;;7.15;2.15;;;;;;;17.86;50.58;97523.72;10339818;28;20488;-59
2022/10/03 12:42:18;;;;;;;3.38;1.77;;;;;;;17.79;52.59;97516.13;10339281;28;20699;-59
2022/10/03 12:47:44;;;;;;;1.20;1.10;;;;;;;17.74;51.65;97537.25;10340407;28;20064;-59
2022/10/03 12:53:07;;;;;;;1.02;0.93;;;;;;;17.20;49.26;97531.09;10340251;28;20079;-59
2022/10/03 12:58:24;;;;;;;4.47;1.20;;;;;;;17.19;49.02;97539.00;10340070;28;20413;-58
2022/10/03 13:03:32;;;;;;;0.93;0.80;;;;;;;16.82;46.35;97569.81;10340383;28;20057;-59
2022/10/03 13:08:53;;;;;;;1.73;0.80;;;;;;;16.93;44.40;97538.91;10340041;28;20052;-59
2022/10/03 13:13:57;;;;;;;1.30;1.20;;;;;;;16.95;42.07;97543.22;10340187;28;20061;-59
2022/10/03 13:19:10;;;;;;;2.20;1.23;;;;;;;16.98;39.96;97537.88;10339953;28;20692;-59
2022/10/03 13:24:17;;;;;;;1.95;1.70;;;;;;;17.19;40.88;97570.47;10339669;28;20076;-58
2022/10/03 13:29:32;;;;;;;1.60;1.50;;;;;;;17.28;41.63;97542.19;10339276;28;20057;-59
2022/10/03 13:34:45;;;;;;;1.95;1.83;;;;;;;17.44;40.52;97537.31;10338028;28;20088;-59
2022/10/03 13:39:47;;;;;;;3.25;2.00;;;;;;;17.57;39.88;97548.28;10336841;28;20560;-59
2022/10/03 13:45:02;;;;;;;2.33;1.90;;;;;;;17.48;39.10;97551.22;10342678;28;20760;-58
2022/10/03 13:50:09;;;;;;;1.65;1.50;;;;;;;17.05;39.60;97556.03;10334748;28;20520;-58
2022/10/03 13:55:19;;;;;;;1.83;1.60;;;;;;;17.11;39.53;97541.88;10341222;28;20061;-58
2022/10/03 14:00:23;;;;;;;3.42;2.30;;;;;;;17.18;40.06;97551.25;10338916;28;20061;-58
2022/10/03 14:05:37;;;;;;;3.47;3.15;;;;;;;17.35;39.45;97538.50;10338476;28;20076;-58
2022/10/03 14:11:06;;;;;;;5.47;2.42;;;;;;;17.30;38.51;97535.13;10338267;28;20065;-59
2022/10/03 14:16:07;;;;;;;1.83;1.70;;;;;;;17.38;37.60;97539.28;10337624;28;20057;-58
2022/10/03 14:21:24;;;;;;;2.10;1.90;;;;;;;17.48;38.10;97549.44;10335952;28;20083;-59
2022/10/03 14:26:34;;;;;;;7.43;4.40;;;;;;;17.25;37.06;97563.28;10332120;28;20079;-58
2022/10/03 14:31:45;;;;;;;7.13;5.10;;;;;;;17.11;37.90;97565.47;10334171;28;20072;-58
2022/10/03 14:36:47;;;;;;;3.08;1.88;;;;;;;16.84;38.27;97552.28;10332562;28;20072;-58
2022/10/03 14:42:24;;;;;;;2.10;1.70;;;;;;;16.74;39.11;97563.88;10332373;28;20068;-58
2022/10/03 14:47:24;;;;;;;7.72;4.50;;;;;;;16.55;39.63;97566.16;10332390;28;20930;-58
2022/10/03 14:52:36;;;;;;;21.08;10.55;;;;;;;16.34;41.10;97578.09;10334079;28;20064;-58
2022/10/03 14:57:43;;;;;;;17.50;9.73;;;;;;;16.20;41.25;97569.75;10333779;28;20068;-58
2022/10/03 15:02:45;;;;;;;14.38;8.30;;;;;;;16.11;42.02;97573.47;10338017;28;20064;-58
2022/10/03 15:07:45;;;;;;;15.95;10.35;;;;;;;16.02;42.05;97571.97;10348983;28;20072;-58
2022/10/03 15:12:52;;;;;;;8.02;5.07;;;;;;;15.88;42.57;97580.16;10372433;28;20056;-58
2022/10/03 15:17:55;;;;;;;4.63;2.97;;;;;;;15.72;42.15;97578.78;10345815;28;20465;-58
2022/10/03 15:22:57;;;;;;;9.88;4.43;;;;;;;15.61;42.58;97580.81;10373782;28;20059;-58
2022/10/03 15:28:01;;;;;;;9.73;6.53;;;;;;;15.60;43.02;97589.53;10373695;28;20056;-58
2022/10/03 15:33:34;;;;;;;14.65;9.80;;;;;;;15.52;43.77;97594.09;10373417;28;20077;-58
2022/10/03 15:38:39;;;;;;;27.60;18.08;;;;;;;15.22;45.10;97594.78;10372776;28;20138;-58
2022/10/03 15:43:55;;;;;;;4.10;2.88;;;;;;;15.16;47.19;97599.28;10373319;28;20195;-58
2022/10/03 15:48:55;;;;;;;5.05;3.20;;;;;;;15.02;48.37;97612.63;10373152;28;20060;-58
2022/10/03 15:53:58;;;;;;;6.70;3.20;;;;;;;14.85;48.76;97615.59;10373121;28;20251;-58
2022/10/03 15:59:03;;;;;;;6.55;4.70;;;;;;;14.73;49.53;97618.44;10372879;28;20500;-59
2022/10/03 16:04:05;;;;;;;16.98;8.35;;;;;;;14.57;50.20;97626.56;10372121;28;20429;-58
2022/10/03 16:09:15;;;;;;;16.42;10.38;;;;;;;14.39;50.65;97632.97;10372627;28;20171;-58
2022/10/03 16:14:21;;;;;;;12.95;6.90;;;;;;;14.33;50.28;97637.44;10372570;28;20068;-58
2022/10/03 16:19:30;;;;;;;172.90;154.68;;;;;;;14.25;50.58;97639.34;10372807;28;20515;-58
2022/10/03 16:24:42;;;;;;;30.00;25.15;;;;;;;14.17;51.10;97642.94;10372663;28;20079;-58
2022/10/03 16:29:48;;;;;;;15.60;13.63;;;;;;;14.06;52.14;97657.06;10372608;28;20448;-58
2022/10/03 16:34:49;;;;;;;8.98;6.63;;;;;;;13.87;53.45;97674.75;10372275;28;20084;-58
2022/10/03 16:40:04;;;;;;;9.13;5.65;;;;;;;13.73;54.84;97693.22;10371968;28;20058;-58
2022/10/03 16:45:05;;;;;;;8.38;6.22;;;;;;;13.67;54.90;97696.75;10371647;28;20063;-58
2022/10/03 16:50:23;;;;;;;11.15;8.23;;;;;;;13.61;55.88;97707.28;10372261;28;20067;-59
2022/10/03 16:55:30;;;;;;;8.75;4.68;;;;;;;13.48;56.42;97701.34;10371601;28;20065;-58
2022/10/03 17:00:52;;;;;;;10.38;7.53;;;;;;;13.40;56.24;97715.34;10371859;28;20554;-59
2022/10/03 17:05:55;;;;;;;11.05;7.35;;;;;;;13.29;56.75;97708.53;10372220;28;20061;-58
2022/10/03 17:10:59;;;;;;;11.05;5.93;;;;;;;13.21;56.81;97709.50;10371895;28;20119;-58
2022/10/03 17:16:42;;;;;;;7.90;5.38;;;;;;;13.18;56.55;97710.41;10379360;28;20057;-58
2022/10/03 17:21:52;;;;;;;11.20;5.40;;;;;;;13.10;56.38;97710.50;10377695;28;20064;-58
2022/10/03 17:26:53;;;;;;;13.52;5.70;;;;;;;13.11;57.09;97714.81;10378774;28;20068;-58
2022/10/03 17:32:24;;;;;;;9.63;5.90;;;;;;;13.00;57.35;97695.88;10378087;28;20072;-58
2022/10/03 17:37:22;;;;;;;;;;;;;;;13.13;57.75;97723.47;10378430;28;20068;-58
2022/10/03 17:42:27;;;;;;;10.07;6.53;;;;;;;13.04;57.61;97738.38;10377835;28;19930;-58
2022/10/03 17:47:33;;;;;;;9.30;6.35;;;;;;;13.01;58.10;97738.41;10377621;28;20052;-59
2022/10/03 17:52:37;;;;;;;11.05;7.80;;;;;;;12.88;58.93;97755.88;10377340;28;20064;-59
2022/10/03 17:57:50;;;;;;;13.43;8.85;;;;;;;12.79;60.36;97749.06;10377420;28;20056;-59
2022/10/03 18:03:03;;;;;;;23.08;9.88;;;;;;;12.45;61.67;97762.38;10377487;28;20511;-59
2022/10/03 18:08:11;;;;;;;16.83;9.05;;;;;;;12.38;62.29;97765.03;10376526;28;20064;-58
2022/10/03 18:13:35;;;;;;;15.87;8.93;;;;;;;12.31;62.13;97761.63;10376822;28;20057;-58
2022/10/03 18:19:22;;;;;;;14.98;9.63;;;;;;;12.18;63.71;97755.63;10376473;28;20060;-58
2022/10/03 18:24:40;;;;;;;19.10;11.25;;;;;;;12.01;64.19;97773.06;10375962;28;20057;-58
2022/10/03 18:29:57;;;;;;;17.33;9.98;;;;;;;11.87;65.38;97774.00;10375942;28;20469;-58
2022/10/03 18:35:14;;;;;;;18.48;8.00;;;;;;;11.70;66.35;97762.84;10375374;28;20073;-58
2022/10/03 18:40:43;;;;;;;11.23;7.05;;;;;;;11.58;66.95;97774.19;10375503;28;20064;-58
2022/10/03 18:45:44;;;;;;;10.30;5.87;;;;;;;11.38;66.78;97775.97;10375088;28;20450;-58
2022/10/03 18:50:55;;;;;;;10.23;5.05;;;;;;;11.33;61.69;97782.94;10375089;28;20079;-58
2022/10/03 18:56:00;;;;;;;8.88;4.25;;;;;;;11.51;61.77;97782.00;10375593;28;20446;-58
2022/10/03 19:01:06;;;;;;;7.22;4.07;;;;;;;11.59;61.23;97785.44;10374458;28;20063;-59
2022/10/03 19:06:17;;;;;;;8.75;5.10;;;;;;;11.53;62.22;97788.06;10374361;28;20075;-58
2022/10/03 19:11:32;;;;;;;9.10;4.90;;;;;;;11.42;63.33;97816.69;10374450;28;20056;-59
2022/10/03 19:17:09;;;;;;;10.23;5.45;;;;;;;11.29;63.73;97817.59;10374281;28;20044;-58
2022/10/03 19:22:12;;;;;;;11.27;5.90;;;;;;;11.18;65.14;97815.03;10374834;28;20496;-58
2022/10/03 19:27:16;;;;;;;20.05;11.00;;;;;;;10.97;66.14;97815.94;10373914;28;20079;-58
2022/10/03 19:32:22;;;;;;;20.90;10.52;;;;;;;10.87;67.01;97825.47;10373688;28;20129;-58
2022/10/03 19:37:24;;;;;;;16.83;10.77;;;;;;;10.77;67.97;97821.97;10373614;28;20072;-58
2022/10/03 19:42:47;;;;;;;17.55;9.80;;;;;;;10.70;69.14;97821.97;10373061;28;20066;-58
2022/10/03 19:47:52;;;;;;;15.80;8.38;;;;;;;10.61;69.37;97812.47;10371283;28;20060;-58
2022/10/03 19:52:51;;;;;;;9.75;6.13;;;;;;;10.43;71.04;97815.06;10343128;28;20595;-58
2022/10/03 19:57:57;;;;;;;10.57;6.25;;;;;;;10.38;70.80;97831.50;10296794;28;20081;-59
2022/10/03 20:03:15;;;;;;;9.77;6.35;;;;;;;10.38;70.08;97833.22;10290346;28;20393;-58
2022/10/03 20:08:26;;;;;;;11.43;7.05;;;;;;;10.44;70.71;97838.41;10289582;28;20073;-58
2022/10/03 20:13:25;;;;;;;11.35;6.65;;;;;;;10.41;71.87;97851.38;10289206;28;20077;-58
2022/10/03 20:18:29;;;;;;;10.80;7.35;;;;;;;10.49;71.00;97848.78;10288295;28;20033;-58
2022/10/03 20:23:31;;;;;;;13.90;8.27;;;;;;;10.55;71.13;97849.66;10289518;28;20070;-58
2022/10/03 20:29:14;;;;;;;11.48;7.47;;;;;;;10.61;72.62;97849.69;10289248;28;20064;-58
2022/10/03 20:34:18;;;;;;;13.32;7.68;;;;;;;10.60;72.07;97842.75;10289115;28;20096;-58
2022/10/03 20:39:21;;;;;;;14.55;8.93;;;;;;;10.61;72.32;97836.69;10289471;28;20081;-58
2022/10/03 20:45:01;;;;;;;19.30;10.35;;;;;;;10.65;72.62;97850.53;10289462;28;20069;-58
2022/10/03 20:50:30;;;;;;;11.27;5.57;;;;;;;10.53;73.86;97847.94;10289666;28;20530;-58
2022/10/03 20:55:52;;;;;;;6.93;4.93;;;;;;;10.45;74.93;97847.03;10260980;28;20073;-58
2022/10/03 21:00:59;;;;;;;7.32;3.88;;;;;;;10.43;75.70;97848.81;10256445;28;20069;-58
2022/10/03 21:06:00;;;;;;;6.18;4.03;;;;;;;10.46;75.51;97853.97;10255711;28;20066;-58
2022/10/03 21:11:03;;;;;;;7.25;3.78;;;;;;;10.43;76.06;97859.19;10256430;28;20101;-58
2022/10/03 21:16:15;;;;;;;5.57;3.70;;;;;;;10.44;76.20;97863.50;10255106;28;20074;-58
2022/10/03 21:21:24;;;;;;;9.27;4.13;;;;;;;10.44;77.23;97860.91;10255546;28;20065;-58
2022/10/03 21:26:28;;;;;;;5.90;4.43;;;;;;;10.42;76.45;97853.09;10255420;28;20065;-58
2022/10/03 21:31:39;;;;;;;7.00;4.40;;;;;;;10.25;77.36;97854.81;10255509;28;20066;-58
2022/10/03 21:36:53;;;;;;;15.43;7.53;;;;;;;10.11;77.44;97847.88;10254075;28;20066;-58
2022/10/03 21:42:24;;;;;;;14.48;7.22;;;;;;;10.09;76.98;97853.91;10254488;28;20061;-58
2022/10/03 21:47:55;;;;;;;9.52;5.20;;;;;;;10.03;77.49;97852.19;10254483;28;20062;-58
2022/10/03 21:53:02;;;;;;;10.98;5.80;;;;;;;9.93;77.88;97845.22;10277004;28;20057;-58
2022/10/03 21:58:16;;;;;;;8.45;5.28;;;;;;;9.78;78.03;97828.75;10292638;28;20069;-58
2022/10/03 22:03:21;;;;;;;13.55;10.07;;;;;;;9.54;80.06;97839.03;10294460;28;20061;-58
2022/10/03 22:08:24;;;;;;;13.18;7.10;;;;;;;9.30;80.63;97845.84;10294494;28;20079;-58
2022/10/03 22:13:27;;;;;;;10.32;6.40;;;;;;;9.26;80.34;97851.81;10291144;28;20066;-58
2022/10/03 22:18:33;;;;;;;11.32;6.18;;;;;;;9.20;80.10;97853.50;10290919;28;20066;-58
2022/10/03 22:23:46;;;;;;;15.00;8.93;;;;;;;9.04;80.63;97858.56;10290900;28;20061;-58
2022/10/03 22:29:11;;;;;;;12.82;8.57;;;;;;;9.01;80.53;97855.09;10291875;28;20481;-58
2022/10/03 22:34:16;;;;;;;13.00;8.05;;;;;;;8.98;80.40;97847.34;10292386;28;20089;-58
2022/10/03 22:39:17;;;;;;;15.30;7.95;;;;;;;8.94;81.13;97855.06;10293191;28;20074;-58
2022/10/03 22:44:21;;;;;;;12.65;7.35;;;;;;;8.89;81.41;97845.53;10292581;28;20061;-58
2022/10/03 22:49:28;;;;;;;13.23;7.47;;;;;;;8.83;81.61;97850.66;10292285;28;20505;-58
2022/10/03 22:54:36;;;;;;;9.45;5.82;;;;;;;8.80;81.39;97840.28;10292494;28;20057;-58
2022/10/03 22:59:57;;;;;;;15.50;5.38;;;;;;;8.75;81.36;97845.44;10291734;28;20069;-58
2022/10/03 23:05:18;;;;;;;12.18;7.57;;;;;;;8.51;82.53;97844.38;10291581;28;20088;-58
2022/10/03 23:10:38;;;;;;;9.50;6.10;;;;;;;8.37;82.57;97830.47;10291390;28;20080;-58
2022/10/03 23:15:41;;;;;;;8.52;5.63;;;;;;;8.31;82.48;97840.75;10291490;28;20069;-58
2022/10/03 23:20:53;;;;;;;9.52;5.63;;;;;;;8.30;82.22;97846.78;10291096;28;20484;-58
2022/10/03 23:26:23;;;;;;;8.90;5.78;;;;;;;8.22;82.35;97838.06;10291402;28;20486;-58
2022/10/03 23:31:54;;;;;;;11.88;5.72;;;;;;;8.13;83.40;97853.50;10291022;28;20073;-59
2022/10/03 23:37:12;;;;;;;8.32;5.97;;;;;;;8.02;83.59;97837.88;10290506;28;20077;-58
2022/10/03 23:42:30;;;;;;;10.50;5.68;;;;;;;7.94;84.39;97842.94;10290756;28;20077;-58
2022/10/03 23:47:37;;;;;;;7.75;5.63;;;;;;;7.95;83.98;97829.19;10289876;28;20105;-58
2022/10/03 23:52:48;;;;;;;9.35;5.68;;;;;;;8.02;83.74;97831.00;10290371;28;20509;-58
2022/10/03 23:57:47;;;;;;;8.85;5.18;;;;;;;8.06;84.04;97817.25;10290772;28;20081;-58
